Time;durP1;ratioP1;P1;durP2;ratioP2;P2;SDS_P1;SDS_P2;PMS_P1;PMS_P2;Temp;Humidity;BMP_temperature;BMP_pressure;BME280_temperature;BME280_humidity;BME280_pressure;Samples;Min_cycle;Max_cycle;Signal;HPM_P1;HPM_P2
2022/08/25 00:01:53;;;;;;;2.60;1.73;;;26.40;72.10;;;;;;4107867;28;20027;-66
2022/08/25 00:03:54;;;;;;;2.35;1.70;;;26.30;72.70;;;;;;4110508;28;20047;-66
2022/08/25 00:05:54;;;;;;;2.63;1.95;;;26.40;74.30;;;;;;4111482;28;20379;-66
2022/08/25 00:07:55;;;;;;;3.60;2.17;;;26.40;74.30;;;;;;4111335;28;20059;-66
2022/08/25 00:09:56;;;;;;;2.83;1.60;;;26.40;76.00;;;;;;4108020;28;20067;-66
2022/08/25 00:11:57;;;;;;;2.15;1.60;;;26.50;75.80;;;;;;4108262;28;20065;-66
2022/08/25 00:14:03;;;;;;;3.13;2.15;;;26.50;76.90;;;;;;4108217;28;20100;-66
2022/08/25 00:16:04;;;;;;;2.90;2.08;;;26.50;74.80;;;;;;4111503;28;20031;-66
2022/08/25 00:18:04;;;;;;;3.38;1.88;;;26.40;75.70;;;;;;4111475;28;20087;-66
2022/08/25 00:20:08;;;;;;;2.60;1.77;;;26.40;74.60;;;;;;4107618;28;20027;-67
2022/08/25 00:22:08;;;;;;;3.05;1.88;;;26.40;74.70;;;;;;4107785;28;20062;-69
2022/08/25 00:24:11;;;;;;;2.67;1.70;;;26.40;76.10;;;;;;4111294;28;20050;-67
2022/08/25 00:26:12;;;;;;;;;;;26.40;75.90;;;;;;4111017;28;20409;-65
2022/08/25 00:28:15;;;;;;;4.40;1.85;;;26.40;75.80;;;;;;4108517;28;19964;-67
2022/08/25 00:30:17;;;;;;;2.65;1.80;;;26.40;75.30;;;;;;4107111;28;20039;-66
2022/08/25 00:32:18;;;;;;;2.83;2.20;;;26.40;75.50;;;;;;4108702;28;20480;-66
2022/08/25 00:34:22;;;;;;;3.63;1.88;;;26.30;76.30;;;;;;4110415;28;20041;-66
2022/08/25 00:36:23;;;;;;;2.80;2.03;;;26.30;76.60;;;;;;4110201;28;20110;-66
2022/08/25 00:38:24;;;;;;;2.75;1.65;;;26.30;75.10;;;;;;4111116;28;20513;-66
2022/08/25 00:40:26;;;;;;;3.05;1.88;;;26.30;75.50;;;;;;4107065;28;20110;-67
2022/08/25 00:42:27;;;;;;;3.70;1.98;;;26.20;75.40;;;;;;4111173;28;20035;-66
2022/08/25 00:44:30;;;;;;;2.17;1.58;;;26.20;76.20;;;;;;4108412;28;20020;-66
2022/08/25 00:46:38;;;;;;;2.45;1.67;;;26.20;78.40;;;;;;4110179;28;20043;-66
2022/08/25 00:48:42;;;;;;;2.80;1.70;;;26.20;76.40;;;;;;4109938;28;20055;-67
2022/08/25 00:50:42;;;;;;;3.08;1.80;;;26.10;77.40;;;;;;4105399;28;20410;-66
2022/08/25 00:52:46;;;;;;;2.13;1.70;;;26.10;77.60;;;;;;4110916;28;20035;-66
2022/08/25 00:55:04;;;;;;;2.35;1.88;;;26.10;77.90;;;;;;4111326;28;20042;-66
2022/08/25 00:57:06;;;;;;;3.08;1.73;;;26.00;76.90;;;;;;4107485;28;20033;-66
2022/08/25 00:59:07;;;;;;;4.65;1.85;;;26.00;77.30;;;;;;4108357;28;20035;-66
2022/08/25 01:01:07;;;;;;;2.83;1.85;;;26.00;76.30;;;;;;4106700;28;20042;-66
2022/08/25 01:03:10;;;;;;;3.15;2.15;;;25.90;75.60;;;;;;4110516;28;20039;-65
2022/08/25 01:05:11;;;;;;;2.30;1.83;;;25.90;76.20;;;;;;4109856;28;20046;-66
2022/08/25 01:07:13;;;;;;;3.45;1.90;;;25.90;76.30;;;;;;4110115;28;20986;-66
2022/08/25 01:09:16;;;;;;;3.00;2.15;;;25.90;76.70;;;;;;4103686;28;20101;-66
2022/08/25 01:11:17;;;;;;;2.25;1.50;;;25.90;79.10;;;;;;4108168;28;20046;-66
2022/08/25 01:13:27;;;;;;;5.32;2.13;;;25.80;77.20;;;;;;4110442;28;20049;-66
2022/08/25 01:15:29;;;;;;;2.95;1.80;;;25.80;78.10;;;;;;4105986;28;20073;-66
2022/08/25 01:17:49;;;;;;;4.00;1.88;;;25.80;76.70;;;;;;4111157;28;20065;-66
2022/08/25 01:19:49;;;;;;;4.80;2.30;;;25.70;77.00;;;;;;4105584;28;20113;-66
2022/08/25 01:21:52;;;;;;;3.60;1.85;;;25.70;77.20;;;;;;4109389;28;20051;-66
2022/08/25 01:23:57;;;;;;;2.10;1.83;;;25.70;77.50;;;;;;4106870;28;20114;-67
2022/08/25 01:26:20;;;;;;;3.45;1.85;;;25.70;77.70;;;;;;4106583;28;20498;-66
2022/08/25 01:28:20;;;;;;;1.88;1.60;;;25.60;78.60;;;;;;4111083;28;20035;-66
2022/08/25 01:30:22;;;;;;;3.40;1.88;;;25.60;78.50;;;;;;4107372;28;20559;-66
2022/08/25 01:32:23;;;;;;;2.55;1.80;;;25.60;77.60;;;;;;4110099;28;20027;-66
2022/08/25 01:34:27;;;;;;;4.60;1.80;;;25.60;77.50;;;;;;4112641;28;20033;-66
2022/08/25 01:36:29;;;;;;;3.58;1.73;;;25.50;78.30;;;;;;4110067;28;20042;-66
2022/08/25 01:38:30;;;;;;;2.72;1.60;;;25.50;76.70;;;;;;4114590;28;20562;-66
2022/08/25 01:40:31;;;;;;;3.15;2.08;;;25.40;76.50;;;;;;4109699;28;21034;-65
2022/08/25 01:43:10;;;;;;;3.17;1.77;;;25.40;77.70;;;;;;4114253;28;20026;-66
2022/08/25 01:45:11;;;;;;;3.95;2.20;;;25.30;78.20;;;;;;4109770;28;20231;-67
2022/08/25 01:47:12;;;;;;;3.05;1.70;;;25.30;77.70;;;;;;4114281;28;20706;-66
2022/08/25 01:49:13;;;;;;;2.63;1.90;;;25.30;76.90;;;;;;4112520;28;20050;-66
2022/08/25 01:51:15;;;;;;;3.83;2.20;;;25.10;77.30;;;;;;4110531;28;20050;-66
2022/08/25 01:53:26;;;;;;;4.63;2.15;;;25.10;77.60;;;;;;4114334;28;20123;-66
2022/08/25 01:55:27;;;;;;;3.65;2.25;;;25.00;78.90;;;;;;4112986;28;20038;-66
2022/08/25 01:57:30;;;;;;;3.00;1.90;;;25.00;79.30;;;;;;4113441;28;20042;-66
2022/08/25 01:59:31;;;;;;;4.68;2.30;;;25.00;79.30;;;;;;4110510;28;20035;-66
2022/08/25 02:01:32;;;;;;;3.05;2.05;;;25.00;79.80;;;;;;4109689;28;20102;-66
2022/08/25 02:03:37;;;;;;;2.88;2.00;;;24.90;79.50;;;;;;4113797;28;20439;-66
2022/08/25 02:05:38;;;;;;;3.17;2.10;;;24.90;81.30;;;;;;4113443;28;20041;-67
2022/08/25 02:07:41;;;;;;;2.30;1.90;;;24.90;82.50;;;;;;4113451;28;20494;-66
2022/08/25 02:09:43;;;;;;;3.72;2.10;;;24.90;80.70;;;;;;4112269;28;20031;-67
2022/08/25 02:11:45;;;;;;;2.03;1.70;;;24.90;83.30;;;;;;4110791;28;20398;-66
2022/08/25 02:13:46;;;;;;;;;;;24.90;83.10;;;;;;4114470;28;20047;-66
2022/08/25 02:15:50;;;;;;;2.90;2.08;;;24.90;81.80;;;;;;4109817;28;19910;-66
2022/08/25 02:17:51;;;;;;;2.28;1.70;;;25.00;84.00;;;;;;4105846;28;20039;-66
2022/08/25 02:19:52;;;;;;;3.85;1.92;;;24.90;81.70;;;;;;4111415;28;20073;-66
2022/08/25 02:21:52;;;;;;;2.72;1.63;;;24.90;81.30;;;;;;4111989;28;20062;-66
2022/08/25 02:23:53;;;;;;;3.90;2.00;;;24.90;81.80;;;;;;4112718;28;20042;-65
2022/08/25 02:25:56;;;;;;;2.60;1.88;;;24.90;81.70;;;;;;4113258;28;20034;-66
2022/08/25 02:27:57;;;;;;;2.60;1.98;;;24.90;81.50;;;;;;4113689;28;20039;-66
2022/08/25 02:29:57;;;;;;;1.98;1.52;;;24.90;79.90;;;;;;4111628;28;20478;-66
2022/08/25 02:31:58;;;;;;;3.75;1.98;;;24.90;80.50;;;;;;4106050;28;20101;-66
2022/08/25 02:34:00;;;;;;;3.25;2.17;;;24.80;80.00;;;;;;4113340;28;20050;-66
2022/08/25 02:36:02;;;;;;;3.33;2.00;;;24.80;79.80;;;;;;4112962;28;20478;-66
2022/08/25 02:38:04;;;;;;;4.30;1.98;;;24.80;79.20;;;;;;4113162;28;20042;-66
2022/08/25 02:40:05;;;;;;;2.60;1.67;;;24.80;80.10;;;;;;4110846;28;20039;-66
2022/08/25 02:42:06;;;;;;;4.32;2.00;;;24.80;81.40;;;;;;4095492;29;20670;-66
2022/08/25 02:44:07;;;;;;;5.15;2.72;;;24.60;79.00;;;;;;4111185;28;20035;-66
2022/08/25 02:46:10;;;;;;;3.70;2.40;;;24.10;80.30;;;;;;4112673;28;20410;-66
2022/08/25 02:48:10;;;;;;;4.00;2.55;;;23.70;82.90;;;;;;4112822;28;20490;-67
2022/08/25 02:50:11;;;;;;;4.90;2.53;;;23.30;84.30;;;;;;4108523;28;20031;-67
2022/08/25 02:52:12;;;;;;;7.72;2.78;;;23.10;85.30;;;;;;4112051;28;20046;-66
2022/08/25 02:54:12;;;;;;;4.40;2.33;;;22.80;85.30;;;;;;4113278;28;20030;-66
2022/08/25 02:56:14;;;;;;;4.50;2.30;;;22.70;86.00;;;;;;4112562;28;20065;-66
2022/08/25 02:58:15;;;;;;;3.70;2.30;;;22.40;86.50;;;;;;4112080;28;20042;-66
2022/08/25 03:00:16;;;;;;;4.28;2.42;;;22.40;86.90;;;;;;4106597;28;20510;-66
2022/08/25 03:02:17;;;;;;;2.47;1.90;;;22.40;86.50;;;;;;4111092;28;20035;-66
2022/08/25 03:04:18;;;;;;;4.63;2.25;;;22.40;86.50;;;;;;4112449;28;20062;-66
2022/08/25 03:06:23;;;;;;;4.80;2.40;;;22.50;87.20;;;;;;4108203;28;20436;-66
2022/08/25 03:08:24;;;;;;;3.35;2.05;;;22.50;84.50;;;;;;4110248;28;20375;-66
2022/08/25 03:10:25;;;;;;;3.47;2.42;;;22.60;84.40;;;;;;4105261;28;20503;-65
2022/08/25 03:12:26;;;;;;;3.03;2.10;;;22.60;84.20;;;;;;4112879;28;20090;-66
2022/08/25 03:14:26;;;;;;;2.85;2.20;;;22.70;86.70;;;;;;4112518;28;20097;-66
2022/08/25 03:16:27;;;;;;;4.30;2.65;;;22.80;84.00;;;;;;4111460;28;20030;-66
2022/08/25 03:18:28;;;;;;;3.10;1.98;;;22.90;84.40;;;;;;4111066;28;20035;-66
2022/08/25 03:20:29;;;;;;;3.47;2.20;;;23.00;84.30;;;;;;4109316;28;20410;-66
2022/08/25 03:22:29;;;;;;;4.35;2.70;;;23.00;83.40;;;;;;4111268;28;20035;-66
2022/08/25 03:24:30;;;;;;;3.53;2.15;;;23.10;82.30;;;;;;4112551;28;20035;-66
2022/08/25 03:28:50;;;;;;;3.60;2.40;;;23.20;83.40;;;;;;4109750;28;20039;-66
2022/08/25 03:30:52;;;;;;;4.93;2.60;;;23.30;84.50;;;;;;4107445;28;20073;-66
2022/08/25 03:32:53;;;;;;;3.73;2.40;;;23.30;84.30;;;;;;4112863;28;20113;-66
2022/08/25 03:34:53;;;;;;;3.92;2.47;;;23.30;83.70;;;;;;4112664;28;20031;-66
2022/08/25 03:36:55;;;;;;;4.03;2.58;;;23.40;82.00;;;;;;4111726;28;20117;-67
2022/08/25 03:38:56;;;;;;;4.60;2.35;;;23.40;83.20;;;;;;4110915;28;20489;-66
2022/08/25 03:40:57;;;;;;;3.45;2.03;;;23.40;83.70;;;;;;4109283;28;20089;-67
2022/08/25 03:42:57;;;;;;;2.85;1.95;;;23.50;82.50;;;;;;4111469;28;20445;-66
2022/08/25 03:44:58;;;;;;;3.50;2.13;;;23.50;82.60;;;;;;4112427;28;20114;-66
2022/08/25 03:46:58;;;;;;;2.47;1.92;;;23.50;82.20;;;;;;4111840;28;20097;-66
2022/08/25 03:49:04;;;;;;;3.40;2.35;;;23.50;81.70;;;;;;4110950;28;20034;-66
2022/08/25 03:51:05;;;;;;;3.75;2.50;;;23.50;82.00;;;;;;4108644;28;20062;-66
2022/08/25 03:53:06;;;;;;;3.60;2.30;;;23.60;82.30;;;;;;4112442;28;20039;-66
2022/08/25 03:55:10;;;;;;;5.05;2.47;;;23.60;82.10;;;;;;4112191;28;20037;-66
2022/08/25 03:57:11;;;;;;;5.32;2.80;;;23.60;83.50;;;;;;4111121;28;20121;-66
2022/08/25 03:59:12;;;;;;;3.80;2.30;;;23.60;83.50;;;;;;4105056;28;20023;-65
2022/08/25 04:01:14;;;;;;;3.35;2.35;;;23.60;83.80;;;;;;4108511;28;20154;-66
2022/08/25 04:03:14;;;;;;;2.63;2.10;;;23.60;82.70;;;;;;4111458;28;20456;-66
2022/08/25 04:05:15;;;;;;;3.58;2.58;;;23.60;81.40;;;;;;4106362;28;20091;-66
2022/08/25 04:07:16;;;;;;;3.88;2.22;;;23.50;81.30;;;;;;4107698;28;20398;-66
2022/08/25 04:09:16;;;;;;;4.32;2.63;;;23.40;81.80;;;;;;4109417;28;20035;-66
2022/08/25 04:11:20;;;;;;;3.63;2.50;;;23.40;83.10;;;;;;4106079;28;20166;-66
2022/08/25 04:13:21;;;;;;;4.05;2.13;;;23.40;84.50;;;;;;4114075;28;20174;-66
2022/08/25 04:15:23;;;;;;;3.53;2.38;;;23.40;83.40;;;;;;4094191;28;20089;-66
2022/08/25 04:17:24;;;;;;;3.50;2.50;;;23.40;83.90;;;;;;4102479;28;20038;-66
2022/08/25 04:19:24;;;;;;;4.20;2.83;;;23.30;85.10;;;;;;4113328;28;20038;-65
2022/08/25 04:21:26;;;;;;;3.60;2.90;;;23.10;84.40;;;;;;4111274;28;20174;-66
2022/08/25 04:23:26;;;;;;;5.38;3.03;;;22.90;84.10;;;;;;4112013;28;20046;-65
2022/08/25 04:25:27;;;;;;;3.35;2.65;;;22.70;84.50;;;;;;4103218;28;20498;-66
2022/08/25 04:27:27;;;;;;;6.82;3.20;;;22.60;84.40;;;;;;4099747;28;20031;-66
2022/08/25 04:29:28;;;;;;;4.80;2.60;;;22.50;86.30;;;;;;4115118;28;20122;-66
2022/08/25 04:31:29;;;;;;;3.75;2.35;;;22.50;87.10;;;;;;4086924;28;20550;-66
2022/08/25 04:33:30;;;;;;;5.35;2.45;;;22.60;87.00;;;;;;4103334;28;20097;-65
2022/08/25 04:35:30;;;;;;;3.60;2.55;;;22.70;87.30;;;;;;4113070;28;20482;-65
2022/08/25 04:37:32;;;;;;;4.80;2.95;;;22.70;87.20;;;;;;4113886;28;20043;-66
2022/08/25 04:39:33;;;;;;;2.85;2.25;;;22.80;88.20;;;;;;4109210;28;20096;-67
2022/08/25 04:41:33;;;;;;;4.38;2.55;;;22.80;86.90;;;;;;4113655;28;20438;-67
2022/08/25 04:43:35;;;;;;;4.30;2.75;;;22.80;87.20;;;;;;4110811;28;20041;-67
2022/08/25 04:45:37;;;;;;;4.28;2.28;;;22.90;87.20;;;;;;4109901;28;20371;-66
2022/08/25 04:47:38;;;;;;;4.57;2.47;;;22.90;86.70;;;;;;4110783;28;20050;-67
2022/08/25 04:49:39;;;;;;;4.13;1.80;;;22.90;86.30;;;;;;4108699;28;20034;-67
2022/08/25 04:51:40;;;;;;;3.55;2.33;;;23.00;86.30;;;;;;4106083;28;20075;-66
2022/08/25 04:53:41;;;;;;;2.92;2.30;;;23.00;86.90;;;;;;4110623;28;20043;-66
2022/08/25 04:55:47;;;;;;;2.65;2.20;;;23.00;88.60;;;;;;4107007;28;20158;-68
2022/08/25 04:57:47;;;;;;;5.00;2.58;;;23.00;85.60;;;;;;4105786;28;20085;-67
2022/08/25 04:59:48;;;;;;;4.15;2.42;;;23.00;85.80;;;;;;4109297;28;20038;-66
2022/08/25 05:01:49;;;;;;;3.63;2.17;;;23.00;85.70;;;;;;4108170;28;20469;-67
2022/08/25 05:03:59;;;;;;;3.00;2.10;;;23.00;85.10;;;;;;4107577;28;20035;-67
2022/08/25 05:06:00;;;;;;;5.63;2.67;;;23.00;85.10;;;;;;4106675;28;20051;-67
2022/08/25 05:08:01;;;;;;;4.05;2.72;;;23.00;85.90;;;;;;4100324;28;20049;-67
2022/08/25 05:10:02;;;;;;;5.78;2.30;;;23.10;89.40;;;;;;4111054;28;20043;-68
2022/08/25 05:12:03;;;;;;;4.63;2.30;;;23.10;87.70;;;;;;4107454;28;20050;-68
2022/08/25 05:14:04;;;;;;;4.22;2.33;;;23.10;85.60;;;;;;4105893;28;20054;-68
2022/08/25 05:16:05;;;;;;;3.85;2.63;;;23.10;85.40;;;;;;4106166;28;20034;-68
2022/08/25 05:18:06;;;;;;;3.60;2.42;;;23.10;85.00;;;;;;4108438;28;20516;-68
2022/08/25 05:20:07;;;;;;;4.97;2.88;;;23.10;84.80;;;;;;4103967;28;20058;-68
2022/08/25 05:22:07;;;;;;;16.55;2.90;;;23.10;85.90;;;;;;4104811;28;20101;-67
2022/08/25 05:24:08;;;;;;;3.17;2.45;;;23.10;85.70;;;;;;4106650;28;20122;-68
2022/08/25 05:26:12;;;;;;;3.97;2.55;;;23.10;85.40;;;;;;4108733;28;20038;-68
2022/08/25 05:28:13;;;;;;;4.95;2.40;;;23.10;85.70;;;;;;4104331;28;20034;-68
2022/08/25 05:30:14;;;;;;;3.35;2.42;;;23.20;85.50;;;;;;4106106;28;20023;-67
2022/08/25 05:32:14;;;;;;;4.32;2.60;;;23.20;83.70;;;;;;4110769;28;20081;-67
2022/08/25 05:34:17;;;;;;;6.40;2.88;;;23.10;83.50;;;;;;4105458;28;20043;-67
2022/08/25 05:36:19;;;;;;;6.55;3.20;;;22.90;84.70;;;;;;4106621;28;20513;-66
2022/08/25 05:38:20;;;;;;;;;;;22.90;85.40;;;;;;4105899;28;20039;-67
2022/08/25 05:40:20;;;;;;;6.43;2.67;;;22.90;85.10;;;;;;4105649;28;19918;-67
2022/08/25 05:42:22;;;;;;;4.93;2.47;;;22.80;85.50;;;;;;4107284;28;20437;-67
2022/08/25 05:44:22;;;;;;;4.63;2.50;;;22.80;86.20;;;;;;4107511;28;20125;-67
2022/08/25 05:46:24;;;;;;;4.55;2.40;;;22.70;87.20;;;;;;4106756;28;20520;-67
2022/08/25 05:48:25;;;;;;;4.05;2.55;;;22.80;86.50;;;;;;4107353;28;20043;-67
2022/08/25 05:50:26;;;;;;;3.88;2.78;;;22.90;86.50;;;;;;4105721;28;20056;-67
2022/08/25 05:52:27;;;;;;;4.53;2.60;;;22.90;86.50;;;;;;4107145;28;20066;-67
2022/08/25 05:54:28;;;;;;;5.30;2.55;;;22.90;86.60;;;;;;4106554;28;20027;-67
2022/08/25 05:56:28;;;;;;;6.05;3.20;;;23.00;86.70;;;;;;4106825;28;20058;-67
2022/08/25 05:58:30;;;;;;;4.75;2.65;;;23.00;86.80;;;;;;4108581;28;20051;-67
2022/08/25 06:00:31;;;;;;;7.13;3.07;;;23.00;87.20;;;;;;4104881;28;20070;-67
2022/08/25 06:02:42;;;;;;;5.75;2.90;;;23.00;87.60;;;;;;4107365;28;20073;-68
2022/08/25 06:04:43;;;;;;;5.07;3.10;;;23.00;88.20;;;;;;4108305;28;20031;-67
2022/08/25 06:06:44;;;;;;;4.82;2.83;;;23.10;88.60;;;;;;4106097;28;20034;-68
2022/08/25 06:08:44;;;;;;;7.47;2.90;;;23.10;88.80;;;;;;4110045;28;20114;-67
2022/08/25 06:10:51;;;;;;;4.00;2.72;;;23.20;89.90;;;;;;4104716;28;20051;-68
2022/08/25 06:12:51;;;;;;;4.93;2.92;;;23.30;89.60;;;;;;4106383;28;20063;-67
2022/08/25 06:14:52;;;;;;;5.43;2.97;;;23.40;89.50;;;;;;4107818;28;20073;-67
2022/08/25 06:16:53;;;;;;;4.60;3.28;;;23.50;89.50;;;;;;4105765;28;20509;-67
2022/08/25 06:18:54;;;;;;;5.82;3.00;;;23.50;89.00;;;;;;4106369;28;20638;-68
2022/08/25 06:20:54;;;;;;;5.80;3.30;;;23.60;88.50;;;;;;4108105;28;20035;-67
2022/08/25 06:22:57;;;;;;;7.80;3.33;;;23.70;88.50;;;;;;4111094;28;20043;-68
2022/08/25 06:24:58;;;;;;;6.50;3.30;;;23.70;88.40;;;;;;4108424;28;20479;-67
2022/08/25 06:26:59;;;;;;;6.50;3.60;;;23.80;88.40;;;;;;4110418;28;20039;-68
2022/08/25 06:28:59;;;;;;;9.50;3.55;;;23.80;88.60;;;;;;4109006;28;20027;-68
2022/08/25 06:31:00;;;;;;;5.97;3.50;;;23.90;88.20;;;;;;4109633;28;20046;-68
2022/08/25 06:33:01;;;;;;;10.23;3.67;;;23.90;88.30;;;;;;4111089;28;20488;-68
2022/08/25 06:35:03;;;;;;;5.03;3.30;;;24.00;88.20;;;;;;4111103;28;20066;-68
2022/08/25 06:37:04;;;;;;;4.40;2.83;;;24.00;87.30;;;;;;4109466;28;20070;-67
2022/08/25 06:39:05;;;;;;;9.68;3.20;;;24.10;87.70;;;;;;4109332;28;20308;-68
2022/08/25 06:41:09;;;;;;;7.60;3.67;;;24.10;86.40;;;;;;4107448;28;20035;-68
2022/08/25 06:43:09;;;;;;;6.25;3.33;;;24.20;86.90;;;;;;4106334;28;20034;-68
2022/08/25 06:45:10;;;;;;;9.27;4.03;;;24.30;86.30;;;;;;4102135;28;20403;-69
2022/08/25 06:47:11;;;;;;;9.00;3.20;;;24.50;84.40;;;;;;4109155;28;20104;-68
2022/08/25 06:49:12;;;;;;;8.35;3.47;;;24.70;84.70;;;;;;4109305;28;20043;-68
2022/08/25 06:51:17;;;;;;;5.20;3.38;;;24.90;83.50;;;;;;4108571;28;20049;-68
2022/08/25 06:53:17;;;;;;;7.80;3.25;;;25.30;83.20;;;;;;4107172;28;20101;-68
2022/08/25 06:55:18;;;;;;;5.38;3.20;;;25.70;81.90;;;;;;4105064;28;20527;-67
2022/08/25 06:57:19;;;;;;;6.50;3.10;;;26.10;80.70;;;;;;4110191;28;20043;-68
2022/08/25 06:59:19;;;;;;;5.00;3.15;;;26.40;80.40;;;;;;4108249;28;20383;-67
2022/08/25 07:01:25;;;;;;;4.65;2.80;;;26.80;78.30;;;;;;4109001;28;20062;-68
2022/08/25 07:03:26;;;;;;;4.85;2.88;;;27.10;77.90;;;;;;4109113;28;20043;-68
2022/08/25 07:05:27;;;;;;;3.65;2.67;;;27.50;77.60;;;;;;4109291;28;20081;-68
2022/08/25 07:07:28;;;;;;;5.13;2.92;;;28.00;77.20;;;;;;4109647;28;20049;-67
2022/08/25 07:09:29;;;;;;;5.22;2.85;;;28.30;77.10;;;;;;4107829;28;20038;-67
2022/08/25 07:11:33;;;;;;;7.80;3.45;;;28.70;75.60;;;;;;4109413;28;20047;-67
2022/08/25 07:13:34;;;;;;;5.65;3.35;;;29.00;72.00;;;;;;4110238;28;20070;-67
2022/08/25 07:15:38;;;;;;;5.32;3.20;;;29.40;72.50;;;;;;4108934;28;20047;-67
2022/08/25 07:17:39;;;;;;;3.60;2.90;;;29.60;70.50;;;;;;4110557;28;20119;-68
2022/08/25 07:19:39;;;;;;;6.53;3.72;;;29.80;70.60;;;;;;4108218;28;20490;-68
2022/08/25 07:21:44;;;;;;;6.03;3.30;;;29.90;67.50;;;;;;4109317;28;20397;-68
2022/08/25 07:23:45;;;;;;;4.65;2.67;;;29.90;68.30;;;;;;4108629;28;20069;-68
2022/08/25 07:25:46;;;;;;;4.05;2.83;;;30.20;69.00;;;;;;4106451;28;20445;-68
2022/08/25 07:27:46;;;;;;;5.40;3.40;;;30.30;69.60;;;;;;4109514;28;20034;-68
2022/08/25 07:29:48;;;;;;;8.90;2.72;;;30.20;67.00;;;;;;4108071;28;20549;-68
2022/08/25 07:31:49;;;;;;;6.18;2.85;;;30.30;67.00;;;;;;4095529;28;20081;-68
2022/08/25 07:36:09;;;;;;;4.93;3.08;;;30.20;66.80;;;;;;4107134;28;20085;-68
2022/08/25 07:38:09;;;;;;;6.93;3.50;;;30.20;67.00;;;;;;4110284;28;20034;-67
2022/08/25 07:40:31;;;;;;;3.47;2.60;;;30.20;66.90;;;;;;4106563;28;20034;-69
2022/08/25 07:42:32;;;;;;;5.82;3.35;;;30.20;67.80;;;;;;4109066;28;20548;-68
2022/08/25 07:44:33;;;;;;;7.75;3.08;;;30.30;68.30;;;;;;4109705;28;20065;-68
2022/08/25 07:46:33;;;;;;;5.90;2.75;;;30.10;67.20;;;;;;4109136;28;20057;-67
2022/08/25 07:48:34;;;;;;;3.75;2.70;;;30.20;66.50;;;;;;4109147;28;20102;-68
2022/08/25 07:50:44;;;;;;;5.88;3.03;;;30.30;67.40;;;;;;4106428;28;20027;-67
2022/08/25 07:52:45;;;;;;;5.95;3.08;;;30.40;67.00;;;;;;4093419;28;20426;-68
2022/08/25 07:54:45;;;;;;;7.47;3.17;;;30.40;67.00;;;;;;4103444;28;20023;-67
2022/08/25 07:56:46;;;;;;;6.53;3.38;;;30.50;65.90;;;;;;4097594;28;20062;-68
2022/08/25 07:58:47;;;;;;;6.32;3.17;;;30.40;65.50;;;;;;4109391;28;20388;-67
2022/08/25 08:00:48;;;;;;;6.13;2.90;;;30.50;66.50;;;;;;4106867;28;20039;-67
2022/08/25 08:02:49;;;;;;;4.65;2.60;;;30.40;66.00;;;;;;4108367;28;20043;-67
2022/08/25 08:04:52;;;;;;;5.57;2.55;;;30.50;66.60;;;;;;4098680;28;20046;-67
2022/08/25 08:06:52;;;;;;;3.90;2.70;;;30.60;65.80;;;;;;4108789;28;20050;-67
2022/08/25 08:08:54;;;;;;;5.20;2.95;;;30.60;66.60;;;;;;4106544;28;20050;-67
2022/08/25 08:10:54;;;;;;;5.85;3.20;;;30.60;65.60;;;;;;4107866;28;20050;-67
2022/08/25 08:12:55;;;;;;;6.90;3.45;;;30.50;64.90;;;;;;4093653;28;20067;-67
2022/08/25 08:14:57;;;;;;;3.10;2.42;;;30.30;65.50;;;;;;4109730;28;20097;-66
2022/08/25 08:16:58;;;;;;;5.15;3.33;;;30.40;67.30;;;;;;4108135;28;20117;-68
2022/08/25 08:18:59;;;;;;;9.15;2.90;;;30.60;67.40;;;;;;4109108;28;20042;-67
2022/08/25 08:21:00;;;;;;;6.18;3.30;;;30.50;65.00;;;;;;4108653;28;20047;-67
2022/08/25 08:23:01;;;;;;;7.00;2.97;;;30.50;64.20;;;;;;4107450;28;20494;-66
2022/08/25 08:25:02;;;;;;;3.72;2.60;;;30.60;65.50;;;;;;4106326;28;20046;-67
2022/08/25 08:27:05;;;;;;;4.07;2.95;;;30.70;65.40;;;;;;4108646;28;20046;-66
2022/08/25 08:29:06;;;;;;;4.70;3.30;;;30.80;66.90;;;;;;4108383;28;20134;-66
2022/08/25 08:31:07;;;;;;;7.10;3.00;;;30.70;66.30;;;;;;4109973;28;20067;-67
2022/08/25 08:33:07;;;;;;;6.07;3.10;;;30.90;67.50;;;;;;4108988;28;20030;-66
2022/08/25 08:35:08;;;;;;;6.10;3.20;;;30.70;64.10;;;;;;4108579;28;20030;-67
2022/08/25 08:37:09;;;;;;;5.28;3.40;;;30.60;64.30;;;;;;4107695;28;20034;-66
2022/08/25 08:39:09;;;;;;;4.45;2.67;;;30.80;64.10;;;;;;4107877;28;20376;-67
2022/08/25 08:44:20;;;;;;;4.50;2.83;;;30.80;64.50;;;;;;4107186;28;20399;-67
2022/08/25 08:46:22;;;;;;;4.13;2.90;;;30.90;65.90;;;;;;4107519;28;20521;-67
2022/08/25 08:48:51;;;;;;;4.10;2.50;;;30.90;63.90;;;;;;4115410;28;20121;-67
2022/08/25 08:50:59;;;;;;;5.72;2.72;;;30.90;63.10;;;;;;4099566;28;20055;-66
2022/08/25 08:53:09;;;;;;;6.97;2.55;;;31.00;63.10;;;;;;4108335;28;20050;-67
2022/08/25 08:55:38;;;;;;;4.43;2.20;;;31.00;62.90;;;;;;4107705;28;20118;-68
2022/08/25 08:57:45;;;;;;;4.95;2.67;;;31.00;62.90;;;;;;4108739;28;20418;-68
2022/08/25 08:59:50;;;;;;;3.13;2.60;;;31.10;64.00;;;;;;4094826;28;20031;-66
2022/08/25 09:01:58;;;;;;;5.00;2.60;;;31.20;63.80;;;;;;4107695;28;20019;-67
2022/08/25 09:04:19;;;;;;;6.65;2.90;;;31.30;62.40;;;;;;4108658;28;20117;-67
2022/08/25 09:06:24;;;;;;;4.05;2.30;;;31.20;64.10;;;;;;4104199;28;20034;-67
2022/08/25 09:08:25;;;;;;;4.80;2.20;;;31.30;63.40;;;;;;4108511;28;20043;-66
2022/08/25 09:10:38;;;;;;;3.55;2.42;;;31.40;61.40;;;;;;4104253;28;20141;-67
2022/08/25 09:12:47;;;;;;;3.33;2.35;;;31.40;61.40;;;;;;4106736;28;20550;-67
2022/08/25 09:15:20;;;;;;;3.67;2.17;;;31.30;62.50;;;;;;4107654;28;20023;-68
2022/08/25 09:17:44;;;;;;;4.72;2.72;;;31.30;62.10;;;;;;4107386;28;20093;-67
2022/08/25 09:20:13;;;;;;;3.92;2.45;;;31.40;61.60;;;;;;4106774;28;20031;-67
2022/08/25 09:22:50;;;;;;;3.40;2.00;;;31.50;62.40;;;;;;4107795;28;20048;-69
2022/08/25 09:25:13;;;;;;;4.18;2.38;;;31.50;63.10;;;;;;4107138;28;20046;-68
2022/08/25 09:27:38;;;;;;;5.20;2.45;;;31.60;61.90;;;;;;4108324;28;20057;-68
2022/08/25 09:29:56;;;;;;;3.60;2.40;;;31.60;62.00;;;;;;4106786;28;20034;-68
2022/08/25 09:31:59;;;;;;;6.07;3.10;;;31.70;62.60;;;;;;4106997;28;20267;-68
2022/08/25 09:34:02;;;;;;;3.95;2.83;;;31.70;61.70;;;;;;4108528;28;20110;-69
2022/08/25 09:36:04;;;;;;;3.08;2.65;;;31.60;61.30;;;;;;4108081;28;20039;-69
2022/08/25 09:38:08;;;;;;;3.92;2.40;;;31.70;61.50;;;;;;4096532;28;20046;-67
2022/08/25 09:40:10;;;;;;;6.63;3.05;;;31.80;61.90;;;;;;4105316;28;20050;-68
2022/08/25 09:42:10;;;;;;;4.13;3.00;;;31.80;61.70;;;;;;4108000;28;20541;-68
2022/08/25 09:44:31;;;;;;;5.43;2.85;;;31.90;62.30;;;;;;4108386;28;20035;-67
2022/08/25 09:46:32;;;;;;;4.65;2.70;;;32.00;62.10;;;;;;4112359;28;20035;-68
2022/08/25 09:48:45;;;;;;;5.97;2.95;;;32.00;61.40;;;;;;4109041;28;20568;-68
2022/08/25 09:50:48;;;;;;;5.25;2.72;;;32.10;62.10;;;;;;4104914;28;20050;-67
2022/08/25 09:52:49;;;;;;;3.58;2.33;;;32.10;61.90;;;;;;4107404;28;20042;-68
2022/08/25 09:54:50;;;;;;;2.95;2.15;;;32.20;63.10;;;;;;4108033;28;20027;-67
2022/08/25 09:56:54;;;;;;;3.33;2.30;;;32.20;60.00;;;;;;4109845;28;20035;-67
2022/08/25 09:58:56;;;;;;;6.55;2.85;;;32.20;60.60;;;;;;4108877;28;20699;-67
2022/08/25 10:01:11;;;;;;;6.13;2.85;;;32.20;61.50;;;;;;4110127;28;20126;-67
2022/08/25 10:03:19;;;;;;;8.98;2.92;;;32.10;59.20;;;;;;4110033;28;20043;-67
2022/08/25 10:05:24;;;;;;;4.22;2.80;;;31.80;60.20;;;;;;4108163;28;20042;-67
2022/08/25 10:07:34;;;;;;;3.83;2.60;;;31.80;60.20;;;;;;4109175;28;20035;-67
2022/08/25 10:09:40;;;;;;;3.83;2.80;;;31.90;60.60;;;;;;4092416;28;20441;-68
2022/08/25 10:11:46;;;;;;;4.68;2.45;;;32.00;59.90;;;;;;4106790;28;20494;-68
2022/08/25 10:13:52;;;;;;;4.60;2.75;;;32.00;60.90;;;;;;4108988;28;20099;-65
2022/08/25 10:16:08;;;;;;;3.13;2.67;;;32.00;59.10;;;;;;4109173;28;20204;-67
2022/08/25 10:18:24;;;;;;;3.50;2.30;;;32.00;58.60;;;;;;4108858;28;20402;-67
2022/08/25 10:20:27;;;;;;;6.30;2.20;;;32.10;58.80;;;;;;4107210;28;20039;-67
2022/08/25 10:22:31;;;;;;;5.20;2.47;;;32.10;60.20;;;;;;4095838;28;20786;-66
2022/08/25 10:24:32;;;;;;;4.82;2.30;;;32.20;59.50;;;;;;4109341;28;20038;-67
2022/08/25 10:26:43;;;;;;;5.75;2.65;;;32.30;58.90;;;;;;4109335;28;20035;-67
2022/08/25 10:29:08;;;;;;;4.65;2.63;;;32.40;60.10;;;;;;4108254;28;20030;-66
2022/08/25 10:31:21;;;;;;;4.03;2.40;;;32.40;57.70;;;;;;4108580;28;20382;-67
2022/08/25 10:33:30;;;;;;;5.50;2.25;;;32.50;58.10;;;;;;4097682;28;20047;-66
2022/08/25 10:35:46;;;;;;;2.95;2.20;;;32.50;57.40;;;;;;4108215;28;20045;-68
2022/08/25 10:38:01;;;;;;;3.67;2.13;;;32.50;56.80;;;;;;4107638;28;20549;-68
2022/08/25 10:40:09;;;;;;;1.98;1.73;;;32.50;56.60;;;;;;4105060;28;20110;-68
2022/08/25 10:42:22;;;;;;;2.53;2.10;;;32.60;56.50;;;;;;4109272;28;20071;-68
2022/08/25 10:47:17;;;;;;;5.45;2.80;;;32.60;56.70;;;;;;4107414;28;20164;-68
2022/08/25 10:49:36;;;;;;;2.45;1.98;;;32.60;57.20;;;;;;4042484;28;20501;-69
2022/08/25 10:51:59;;;;;;;2.10;1.80;;;32.70;57.50;;;;;;4109661;28;20486;-68
2022/08/25 10:54:18;;;;;;;2.55;2.05;;;32.80;58.70;;;;;;4106753;28;20050;-68
2022/08/25 10:56:55;;;;;;;3.80;2.33;;;32.80;57.00;;;;;;4106409;28;20149;-67